sensor_id;sensor_type;location;lat;lon;timestamp;P1;durP1;ratioP1;P2;durP2;ratioP2
61702;SDS011;47622;47.726;3.298;2024-02-26T00:00:34;2.78;;;1.10;;
61702;SDS011;47622;47.726;3.298;2024-02-26T00:03:00;6.32;;;1.42;;
61702;SDS011;47622;47.726;3.298;2024-02-26T00:05:26;3.72;;;1.35;;
61702;SDS011;47622;47.726;3.298;2024-02-26T00:07:52;6.15;;;1.50;;
61702;SDS011;47622;47.726;3.298;2024-02-26T00:10:17;4.00;;;1.10;;
61702;SDS011;47622;47.726;3.298;2024-02-26T00:12:43;1.95;;;1.10;;
61702;SDS011;47622;47.726;3.298;2024-02-26T00:15:09;1.40;;;1.13;;
61702;SDS011;47622;47.726;3.298;2024-02-26T00:17:35;8.00;;;1.50;;
61702;SDS011;47622;47.726;3.298;2024-02-26T00:20:02;4.68;;;1.48;;
61702;SDS011;47622;47.726;3.298;2024-02-26T00:22:30;4.28;;;1.23;;
61702;SDS011;47622;47.726;3.298;2024-02-26T00:24:56;3.28;;;1.23;;
61702;SDS011;47622;47.726;3.298;2024-02-26T00:27:21;2.42;;;1.20;;
61702;SDS011;47622;47.726;3.298;2024-02-26T00:29:47;3.70;;;1.40;;
61702;SDS011;47622;47.726;3.298;2024-02-26T00:32:12;5.90;;;1.20;;
61702;SDS011;47622;47.726;3.298;2024-02-26T00:34:39;2.72;;;1.20;;
61702;SDS011;47622;47.726;3.298;2024-02-26T00:37:05;2.35;;;1.25;;
61702;SDS011;47622;47.726;3.298;2024-02-26T00:39:30;3.80;;;1.35;;
61702;SDS011;47622;47.726;3.298;2024-02-26T00:41:56;6.47;;;2.88;;
61702;SDS011;47622;47.726;3.298;2024-02-26T00:44:22;3.38;;;1.40;;
61702;SDS011;47622;47.726;3.298;2024-02-26T00:46:47;5.85;;;1.83;;
61702;SDS011;47622;47.726;3.298;2024-02-26T00:49:13;1.58;;;1.20;;
61702;SDS011;47622;47.726;3.298;2024-02-26T00:51:38;6.15;;;1.45;;
61702;SDS011;47622;47.726;3.298;2024-02-26T00:54:04;5.65;;;1.75;;
61702;SDS011;47622;47.726;3.298;2024-02-26T00:56:30;5.30;;;1.75;;
61702;SDS011;47622;47.726;3.298;2024-02-26T00:58:55;6.13;;;1.60;;
61702;SDS011;47622;47.726;3.298;2024-02-26T01:01:21;5.47;;;1.50;;
61702;SDS011;47622;47.726;3.298;2024-02-26T01:03:46;10.80;;;1.65;;
61702;SDS011;47622;47.726;3.298;2024-02-26T01:06:12;7.82;;;1.65;;
61702;SDS011;47622;47.726;3.298;2024-02-26T01:08:37;5.90;;;1.60;;
61702;SDS011;47622;47.726;3.298;2024-02-26T01:11:04;8.30;;;2.45;;
61702;SDS011;47622;47.726;3.298;2024-02-26T01:13:29;6.63;;;1.60;;
61702;SDS011;47622;47.726;3.298;2024-02-26T01:15:55;7.95;;;1.50;;
61702;SDS011;47622;47.726;3.298;2024-02-26T01:18:20;5.38;;;1.40;;
61702;SDS011;47622;47.726;3.298;2024-02-26T01:20:47;6.15;;;1.77;;
61702;SDS011;47622;47.726;3.298;2024-02-26T01:23:12;6.28;;;1.30;;
61702;SDS011;47622;47.726;3.298;2024-02-26T01:25:38;11.05;;;1.90;;
61702;SDS011;47622;47.726;3.298;2024-02-26T01:28:04;5.40;;;1.45;;
61702;SDS011;47622;47.726;3.298;2024-02-26T01:30:31;5.78;;;1.40;;
61702;SDS011;47622;47.726;3.298;2024-02-26T01:32:57;7.28;;;1.75;;
61702;SDS011;47622;47.726;3.298;2024-02-26T01:35:22;4.72;;;1.50;;
61702;SDS011;47622;47.726;3.298;2024-02-26T01:37:48;14.18;;;2.40;;
61702;SDS011;47622;47.726;3.298;2024-02-26T01:40:13;10.27;;;2.83;;
61702;SDS011;47622;47.726;3.298;2024-02-26T01:42:44;8.18;;;1.90;;
61702;SDS011;47622;47.726;3.298;2024-02-26T01:45:14;9.05;;;2.10;;
61702;SDS011;47622;47.726;3.298;2024-02-26T01:47:46;11.63;;;2.08;;
61702;SDS011;47622;47.726;3.298;2024-02-26T01:50:12;10.95;;;1.80;;
61702;SDS011;47622;47.726;3.298;2024-02-26T01:52:38;14.68;;;2.33;;
61702;SDS011;47622;47.726;3.298;2024-02-26T01:55:04;14.10;;;1.88;;
61702;SDS011;47622;47.726;3.298;2024-02-26T01:57:29;18.48;;;2.10;;
61702;SDS011;47622;47.726;3.298;2024-02-26T01:59:55;8.38;;;1.80;;
61702;SDS011;47622;47.726;3.298;2024-02-26T02:02:21;12.70;;;2.17;;
61702;SDS011;47622;47.726;3.298;2024-02-26T02:04:48;7.63;;;1.85;;
61702;SDS011;47622;47.726;3.298;2024-02-26T02:07:14;12.30;;;2.47;;
61702;SDS011;47622;47.726;3.298;2024-02-26T02:09:39;7.45;;;2.08;;
61702;SDS011;47622;47.726;3.298;2024-02-26T02:12:05;9.45;;;1.80;;
61702;SDS011;47622;47.726;3.298;2024-02-26T02:14:31;10.63;;;2.45;;
61702;SDS011;47622;47.726;3.298;2024-02-26T02:16:57;12.75;;;2.33;;
61702;SDS011;47622;47.726;3.298;2024-02-26T02:19:22;12.15;;;1.90;;
61702;SDS011;47622;47.726;3.298;2024-02-26T02:21:48;7.45;;;2.03;;
61702;SDS011;47622;47.726;3.298;2024-02-26T02:24:14;9.40;;;2.03;;
61702;SDS011;47622;47.726;3.298;2024-02-26T02:26:39;8.32;;;1.90;;
61702;SDS011;47622;47.726;3.298;2024-02-26T02:29:05;7.35;;;1.75;;
61702;SDS011;47622;47.726;3.298;2024-02-26T02:31:33;10.48;;;1.95;;
61702;SDS011;47622;47.726;3.298;2024-02-26T02:33:59;6.93;;;1.73;;
61702;SDS011;47622;47.726;3.298;2024-02-26T02:36:25;11.48;;;2.15;;
61702;SDS011;47622;47.726;3.298;2024-02-26T02:38:51;16.45;;;2.38;;
61702;SDS011;47622;47.726;3.298;2024-02-26T02:41:17;9.82;;;2.33;;
61702;SDS011;47622;47.726;3.298;2024-02-26T02:43:43;10.35;;;2.40;;
61702;SDS011;47622;47.726;3.298;2024-02-26T02:46:09;8.45;;;2.33;;
61702;SDS011;47622;47.726;3.298;2024-02-26T02:48:36;11.43;;;2.30;;
61702;SDS011;47622;47.726;3.298;2024-02-26T02:51:02;17.95;;;2.75;;
61702;SDS011;47622;47.726;3.298;2024-02-26T02:53:28;14.02;;;3.00;;
61702;SDS011;47622;47.726;3.298;2024-02-26T02:55:54;13.23;;;2.50;;
61702;SDS011;47622;47.726;3.298;2024-02-26T02:58:20;11.10;;;2.22;;
61702;SDS011;47622;47.726;3.298;2024-02-26T03:00:45;13.68;;;2.60;;
61702;SDS011;47622;47.726;3.298;2024-02-26T03:03:11;11.75;;;2.03;;
61702;SDS011;47622;47.726;3.298;2024-02-26T03:05:36;13.65;;;1.92;;
61702;SDS011;47622;47.726;3.298;2024-02-26T03:08:02;7.40;;;1.52;;
61702;SDS011;47622;47.726;3.298;2024-02-26T03:10:28;11.05;;;2.25;;
61702;SDS011;47622;47.726;3.298;2024-02-26T03:12:54;13.15;;;1.95;;
61702;SDS011;47622;47.726;3.298;2024-02-26T03:15:19;7.47;;;1.95;;
61702;SDS011;47622;47.726;3.298;2024-02-26T03:17:45;13.35;;;2.97;;
61702;SDS011;47622;47.726;3.298;2024-02-26T03:20:11;6.80;;;1.80;;
61702;SDS011;47622;47.726;3.298;2024-02-26T03:22:38;5.13;;;1.80;;
61702;SDS011;47622;47.726;3.298;2024-02-26T03:25:05;10.43;;;1.88;;
61702;SDS011;47622;47.726;3.298;2024-02-26T03:27:31;10.90;;;1.90;;
61702;SDS011;47622;47.726;3.298;2024-02-26T03:29:57;11.65;;;1.60;;
61702;SDS011;47622;47.726;3.298;2024-02-26T03:32:23;9.10;;;1.80;;
61702;SDS011;47622;47.726;3.298;2024-02-26T03:34:49;5.78;;;1.80;;
61702;SDS011;47622;47.726;3.298;2024-02-26T03:37:14;9.77;;;1.70;;
61702;SDS011;47622;47.726;3.298;2024-02-26T03:39:40;8.45;;;2.22;;
61702;SDS011;47622;47.726;3.298;2024-02-26T03:42:06;4.93;;;1.48;;
61702;SDS011;47622;47.726;3.298;2024-02-26T03:44:31;6.38;;;1.40;;
61702;SDS011;47622;47.726;3.298;2024-02-26T03:46:57;5.53;;;1.30;;
61702;SDS011;47622;47.726;3.298;2024-02-26T03:49:22;4.22;;;1.20;;
61702;SDS011;47622;47.726;3.298;2024-02-26T03:51:48;3.08;;;1.73;;
61702;SDS011;47622;47.726;3.298;2024-02-26T03:54:14;5.28;;;1.40;;
61702;SDS011;47622;47.726;3.298;2024-02-26T03:56:39;5.22;;;1.80;;
61702;SDS011;47622;47.726;3.298;2024-02-26T03:59:05;7.18;;;1.50;;
61702;SDS011;47622;47.726;3.298;2024-02-26T04:01:31;6.35;;;1.33;;
61702;SDS011;47622;47.726;3.298;2024-02-26T04:03:57;6.90;;;1.50;;
61702;SDS011;47622;47.726;3.298;2024-02-26T04:06:22;12.27;;;3.15;;
61702;SDS011;47622;47.726;3.298;2024-02-26T04:08:48;5.03;;;1.40;;
61702;SDS011;47622;47.726;3.298;2024-02-26T04:11:13;2.28;;;1.25;;
61702;SDS011;47622;47.726;3.298;2024-02-26T04:13:43;3.08;;;1.40;;
61702;SDS011;47622;47.726;3.298;2024-02-26T04:16:11;4.97;;;1.48;;
61702;SDS011;47622;47.726;3.298;2024-02-26T04:18:37;7.68;;;1.60;;
61702;SDS011;47622;47.726;3.298;2024-02-26T04:21:04;5.25;;;1.48;;
61702;SDS011;47622;47.726;3.298;2024-02-26T04:23:32;3.45;;;1.35;;
61702;SDS011;47622;47.726;3.298;2024-02-26T04:25:58;3.97;;;1.25;;
61702;SDS011;47622;47.726;3.298;2024-02-26T04:28:24;4.75;;;1.40;;
61702;SDS011;47622;47.726;3.298;2024-02-26T04:30:54;3.90;;;1.25;;
61702;SDS011;47622;47.726;3.298;2024-02-26T04:33:21;5.10;;;1.30;;
61702;SDS011;47622;47.726;3.298;2024-02-26T04:35:46;5.03;;;1.40;;
61702;SDS011;47622;47.726;3.298;2024-02-26T04:38:12;6.22;;;1.63;;
61702;SDS011;47622;47.726;3.298;2024-02-26T04:40:37;5.43;;;1.80;;
61702;SDS011;47622;47.726;3.298;2024-02-26T04:43:03;3.85;;;1.35;;
61702;SDS011;47622;47.726;3.298;2024-02-26T04:45:29;4.95;;;1.60;;
61702;SDS011;47622;47.726;3.298;2024-02-26T04:47:54;3.28;;;1.30;;
61702;SDS011;47622;47.726;3.298;2024-02-26T04:50:20;2.75;;;1.58;;
61702;SDS011;47622;47.726;3.298;2024-02-26T04:52:45;5.72;;;1.60;;
61702;SDS011;47622;47.726;3.298;2024-02-26T04:55:11;7.43;;;1.50;;
61702;SDS011;47622;47.726;3.298;2024-02-26T04:57:37;5.68;;;1.73;;
61702;SDS011;47622;47.726;3.298;2024-02-26T05:00:03;6.70;;;1.60;;
61702;SDS011;47622;47.726;3.298;2024-02-26T05:02:30;4.57;;;1.27;;
61702;SDS011;47622;47.726;3.298;2024-02-26T05:04:57;4.53;;;1.38;;
61702;SDS011;47622;47.726;3.298;2024-02-26T05:07:23;2.88;;;1.45;;
61702;SDS011;47622;47.726;3.298;2024-02-26T05:09:49;1.80;;;1.02;;
61702;SDS011;47622;47.726;3.298;2024-02-26T05:12:17;8.30;;;1.70;;
61702;SDS011;47622;47.726;3.298;2024-02-26T05:14:43;6.70;;;1.70;;
61702;SDS011;47622;47.726;3.298;2024-02-26T05:17:08;7.43;;;1.75;;
61702;SDS011;47622;47.726;3.298;2024-02-26T05:19:34;3.13;;;1.40;;
61702;SDS011;47622;47.726;3.298;2024-02-26T05:21:59;6.60;;;1.42;;
61702;SDS011;47622;47.726;3.298;2024-02-26T05:24:25;3.65;;;1.63;;
61702;SDS011;47622;47.726;3.298;2024-02-26T05:26:51;3.38;;;1.20;;
61702;SDS011;47622;47.726;3.298;2024-02-26T05:29:16;2.20;;;1.40;;
61702;SDS011;47622;47.726;3.298;2024-02-26T05:31:42;4.82;;;1.27;;
61702;SDS011;47622;47.726;3.298;2024-02-26T05:34:08;3.45;;;1.23;;
61702;SDS011;47622;47.726;3.298;2024-02-26T05:36:34;4.70;;;1.17;;
61702;SDS011;47622;47.726;3.298;2024-02-26T05:39:01;3.53;;;1.40;;
61702;SDS011;47622;47.726;3.298;2024-02-26T05:41:26;2.28;;;1.20;;
61702;SDS011;47622;47.726;3.298;2024-02-26T05:43:53;3.92;;;1.42;;
61702;SDS011;47622;47.726;3.298;2024-02-26T05:46:19;2.33;;;0.95;;
61702;SDS011;47622;47.726;3.298;2024-02-26T05:48:49;5.25;;;1.00;;
61702;SDS011;47622;47.726;3.298;2024-02-26T05:51:16;1.83;;;1.20;;
61702;SDS011;47622;47.726;3.298;2024-02-26T05:53:42;1.73;;;1.20;;
61702;SDS011;47622;47.726;3.298;2024-02-26T05:56:08;4.93;;;1.20;;
61702;SDS011;47622;47.726;3.298;2024-02-26T05:58:34;3.30;;;1.27;;
61702;SDS011;47622;47.726;3.298;2024-02-26T06:00:59;4.90;;;1.30;;
61702;SDS011;47622;47.726;3.298;2024-02-26T06:03:25;2.90;;;1.27;;
61702;SDS011;47622;47.726;3.298;2024-02-26T06:05:51;3.35;;;1.63;;
61702;SDS011;47622;47.726;3.298;2024-02-26T06:08:17;4.43;;;1.30;;
61702;SDS011;47622;47.726;3.298;2024-02-26T06:10:42;3.53;;;1.27;;
61702;SDS011;47622;47.726;3.298;2024-02-26T06:13:08;1.75;;;1.10;;
61702;SDS011;47622;47.726;3.298;2024-02-26T06:15:34;2.15;;;0.85;;
61702;SDS011;47622;47.726;3.298;2024-02-26T06:17:59;1.80;;;1.00;;
61702;SDS011;47622;47.726;3.298;2024-02-26T06:20:25;4.63;;;1.10;;
61702;SDS011;47622;47.726;3.298;2024-02-26T06:22:51;2.88;;;1.08;;
61702;SDS011;47622;47.726;3.298;2024-02-26T06:25:16;2.38;;;1.00;;
61702;SDS011;47622;47.726;3.298;2024-02-26T06:27:42;2.72;;;1.13;;
61702;SDS011;47622;47.726;3.298;2024-02-26T06:30:08;4.43;;;1.33;;
61702;SDS011;47622;47.726;3.298;2024-02-26T06:32:37;0.93;;;0.90;;
61702;SDS011;47622;47.726;3.298;2024-02-26T06:35:03;1.80;;;1.00;;
61702;SDS011;47622;47.726;3.298;2024-02-26T06:37:32;3.33;;;1.20;;
61702;SDS011;47622;47.726;3.298;2024-02-26T06:39:59;1.90;;;1.00;;
61702;SDS011;47622;47.726;3.298;2024-02-26T06:42:29;3.90;;;1.10;;
61702;SDS011;47622;47.726;3.298;2024-02-26T06:44:55;2.83;;;1.20;;
61702;SDS011;47622;47.726;3.298;2024-02-26T06:47:21;2.28;;;1.13;;
61702;SDS011;47622;47.726;3.298;2024-02-26T06:49:47;2.17;;;1.08;;
61702;SDS011;47622;47.726;3.298;2024-02-26T06:52:12;2.15;;;0.93;;
61702;SDS011;47622;47.726;3.298;2024-02-26T06:54:38;1.33;;;1.02;;
61702;SDS011;47622;47.726;3.298;2024-02-26T06:57:03;1.48;;;1.02;;
61702;SDS011;47622;47.726;3.298;2024-02-26T06:59:29;2.28;;;1.13;;
61702;SDS011;47622;47.726;3.298;2024-02-26T07:01:55;1.45;;;1.08;;
61702;SDS011;47622;47.726;3.298;2024-02-26T07:04:20;2.47;;;1.30;;
61702;SDS011;47622;47.726;3.298;2024-02-26T07:06:46;1.10;;;0.93;;
61702;SDS011;47622;47.726;3.298;2024-02-26T07:09:12;2.53;;;1.23;;
61702;SDS011;47622;47.726;3.298;2024-02-26T07:11:38;3.10;;;1.20;;
61702;SDS011;47622;47.726;3.298;2024-02-26T07:14:07;2.42;;;1.20;;
61702;SDS011;47622;47.726;3.298;2024-02-26T07:16:37;2.63;;;1.10;;
61702;SDS011;47622;47.726;3.298;2024-02-26T07:19:02;1.98;;;1.20;;
61702;SDS011;47622;47.726;3.298;2024-02-26T07:21:28;1.83;;;1.20;;
61702;SDS011;47622;47.726;3.298;2024-02-26T07:23:54;1.52;;;1.02;;
61702;SDS011;47622;47.726;3.298;2024-02-26T07:26:19;1.55;;;1.10;;
61702;SDS011;47622;47.726;3.298;2024-02-26T07:28:45;1.85;;;1.20;;
61702;SDS011;47622;47.726;3.298;2024-02-26T07:31:11;1.65;;;1.00;;
61702;SDS011;47622;47.726;3.298;2024-02-26T07:33:37;3.42;;;1.10;;
61702;SDS011;47622;47.726;3.298;2024-02-26T07:36:03;1.10;;;1.00;;
61702;SDS011;47622;47.726;3.298;2024-02-26T07:38:29;2.45;;;1.05;;
61702;SDS011;47622;47.726;3.298;2024-02-26T07:40:54;2.90;;;1.63;;
61702;SDS011;47622;47.726;3.298;2024-02-26T07:43:22;3.45;;;1.00;;
61702;SDS011;47622;47.726;3.298;2024-02-26T07:45:47;3.65;;;1.00;;
61702;SDS011;47622;47.726;3.298;2024-02-26T07:48:13;2.03;;;1.10;;
61702;SDS011;47622;47.726;3.298;2024-02-26T07:50:39;2.47;;;0.95;;
61702;SDS011;47622;47.726;3.298;2024-02-26T07:53:05;1.55;;;0.88;;
61702;SDS011;47622;47.726;3.298;2024-02-26T07:55:31;3.30;;;1.13;;
61702;SDS011;47622;47.726;3.298;2024-02-26T07:57:56;8.15;;;1.63;;
61702;SDS011;47622;47.726;3.298;2024-02-26T08:00:22;3.78;;;1.50;;
61702;SDS011;47622;47.726;3.298;2024-02-26T08:02:48;2.08;;;1.13;;
61702;SDS011;47622;47.726;3.298;2024-02-26T08:05:13;2.70;;;1.10;;
61702;SDS011;47622;47.726;3.298;2024-02-26T08:07:39;2.03;;;1.00;;
61702;SDS011;47622;47.726;3.298;2024-02-26T08:10:05;1.05;;;0.88;;
61702;SDS011;47622;47.726;3.298;2024-02-26T08:12:30;0.70;;;0.70;;
61702;SDS011;47622;47.726;3.298;2024-02-26T08:14:56;2.25;;;1.10;;
61702;SDS011;47622;47.726;3.298;2024-02-26T08:17:23;2.80;;;1.00;;
61702;SDS011;47622;47.726;3.298;2024-02-26T08:19:48;1.35;;;0.90;;
61702;SDS011;47622;47.726;3.298;2024-02-26T08:22:14;1.80;;;1.20;;
61702;SDS011;47622;47.726;3.298;2024-02-26T08:24:42;1.50;;;0.93;;
61702;SDS011;47622;47.726;3.298;2024-02-26T08:27:07;3.53;;;1.00;;
61702;SDS011;47622;47.726;3.298;2024-02-26T08:29:33;0.80;;;0.80;;
61702;SDS011;47622;47.726;3.298;2024-02-26T08:31:58;2.45;;;1.00;;
61702;SDS011;47622;47.726;3.298;2024-02-26T08:34:24;2.78;;;0.93;;
61702;SDS011;47622;47.726;3.298;2024-02-26T08:36:50;3.90;;;0.95;;
61702;SDS011;47622;47.726;3.298;2024-02-26T08:39:16;4.32;;;1.15;;
61702;SDS011;47622;47.726;3.298;2024-02-26T08:41:46;1.00;;;0.90;;
61702;SDS011;47622;47.726;3.298;2024-02-26T08:44:11;0.88;;;0.88;;
61702;SDS011;47622;47.726;3.298;2024-02-26T08:46:37;4.22;;;1.10;;
61702;SDS011;47622;47.726;3.298;2024-02-26T08:49:03;1.65;;;0.90;;
61702;SDS011;47622;47.726;3.298;2024-02-26T08:51:29;1.80;;;1.08;;
61702;SDS011;47622;47.726;3.298;2024-02-26T08:53:54;0.85;;;0.85;;
61702;SDS011;47622;47.726;3.298;2024-02-26T08:56:20;2.63;;;0.95;;
61702;SDS011;47622;47.726;3.298;2024-02-26T08:58:46;3.13;;;1.65;;
61702;SDS011;47622;47.726;3.298;2024-02-26T09:01:14;4.65;;;1.10;;
61702;SDS011;47622;47.726;3.298;2024-02-26T09:03:40;1.55;;;1.00;;
61702;SDS011;47622;47.726;3.298;2024-02-26T09:06:05;2.47;;;1.02;;
61702;SDS011;47622;47.726;3.298;2024-02-26T09:08:32;3.33;;;1.15;;
61702;SDS011;47622;47.726;3.298;2024-02-26T09:10:58;0.90;;;0.90;;
61702;SDS011;47622;47.726;3.298;2024-02-26T09:13:23;1.77;;;0.90;;
61702;SDS011;47622;47.726;3.298;2024-02-26T09:15:50;3.05;;;1.10;;
61702;SDS011;47622;47.726;3.298;2024-02-26T09:18:15;2.13;;;1.05;;
61702;SDS011;47622;47.726;3.298;2024-02-26T09:20:41;2.58;;;0.90;;
61702;SDS011;47622;47.726;3.298;2024-02-26T09:23:07;0.90;;;0.90;;
61702;SDS011;47622;47.726;3.298;2024-02-26T09:25:32;2.70;;;1.50;;
61702;SDS011;47622;47.726;3.298;2024-02-26T09:28:01;4.05;;;1.33;;
61702;SDS011;47622;47.726;3.298;2024-02-26T09:30:26;3.20;;;1.05;;
61702;SDS011;47622;47.726;3.298;2024-02-26T09:32:52;2.10;;;1.10;;
61702;SDS011;47622;47.726;3.298;2024-02-26T09:35:17;2.15;;;1.10;;
61702;SDS011;47622;47.726;3.298;2024-02-26T09:37:43;3.00;;;1.70;;
61702;SDS011;47622;47.726;3.298;2024-02-26T09:40:09;1.58;;;1.23;;
61702;SDS011;47622;47.726;3.298;2024-02-26T09:42:42;2.47;;;1.30;;
61702;SDS011;47622;47.726;3.298;2024-02-26T09:45:12;2.83;;;1.52;;
61702;SDS011;47622;47.726;3.298;2024-02-26T09:47:47;3.67;;;1.20;;
61702;SDS011;47622;47.726;3.298;2024-02-26T09:50:14;2.28;;;1.00;;
61702;SDS011;47622;47.726;3.298;2024-02-26T09:52:42;2.08;;;1.10;;
61702;SDS011;47622;47.726;3.298;2024-02-26T09:55:08;1.17;;;1.00;;
61702;SDS011;47622;47.726;3.298;2024-02-26T09:57:36;3.17;;;1.02;;
61702;SDS011;47622;47.726;3.298;2024-02-26T10:00:02;1.05;;;0.82;;
61702;SDS011;47622;47.726;3.298;2024-02-26T10:02:30;1.55;;;1.30;;
61702;SDS011;47622;47.726;3.298;2024-02-26T10:04:59;2.25;;;1.00;;
61702;SDS011;47622;47.726;3.298;2024-02-26T10:07:31;3.17;;;1.13;;
61702;SDS011;47622;47.726;3.298;2024-02-26T10:09:57;0.90;;;0.90;;
61702;SDS011;47622;47.726;3.298;2024-02-26T10:12:22;1.73;;;1.00;;
61702;SDS011;47622;47.726;3.298;2024-02-26T10:14:51;1.58;;;0.90;;
61702;SDS011;47622;47.726;3.298;2024-02-26T10:17:17;2.00;;;1.02;;
61702;SDS011;47622;47.726;3.298;2024-02-26T10:19:44;2.00;;;0.90;;
61702;SDS011;47622;47.726;3.298;2024-02-26T10:22:10;2.65;;;1.00;;
61702;SDS011;47622;47.726;3.298;2024-02-26T10:24:36;3.00;;;0.98;;
61702;SDS011;47622;47.726;3.298;2024-02-26T10:27:02;1.25;;;0.90;;
61702;SDS011;47622;47.726;3.298;2024-02-26T10:29:28;3.40;;;1.17;;
61702;SDS011;47622;47.726;3.298;2024-02-26T10:31:54;2.38;;;0.95;;
61702;SDS011;47622;47.726;3.298;2024-02-26T10:34:20;1.80;;;1.00;;
61702;SDS011;47622;47.726;3.298;2024-02-26T10:36:46;1.77;;;1.00;;
61702;SDS011;47622;47.726;3.298;2024-02-26T10:39:12;1.85;;;0.90;;
61702;SDS011;47622;47.726;3.298;2024-02-26T10:41:43;4.55;;;1.40;;
61702;SDS011;47622;47.726;3.298;2024-02-26T10:44:10;3.30;;;1.00;;
61702;SDS011;47622;47.726;3.298;2024-02-26T10:46:38;3.72;;;1.23;;
61702;SDS011;47622;47.726;3.298;2024-02-26T10:49:10;2.22;;;0.90;;
61702;SDS011;47622;47.726;3.298;2024-02-26T10:51:39;3.40;;;1.17;;
61702;SDS011;47622;47.726;3.298;2024-02-26T10:54:08;1.50;;;1.00;;
61702;SDS011;47622;47.726;3.298;2024-02-26T10:56:40;1.10;;;0.80;;
61702;SDS011;47622;47.726;3.298;2024-02-26T10:59:09;2.85;;;0.93;;
61702;SDS011;47622;47.726;3.298;2024-02-26T11:01:35;2.13;;;0.88;;
61702;SDS011;47622;47.726;3.298;2024-02-26T11:04:03;1.67;;;1.00;;
61702;SDS011;47622;47.726;3.298;2024-02-26T11:06:30;0.80;;;0.80;;
61702;SDS011;47622;47.726;3.298;2024-02-26T11:08:59;1.10;;;1.00;;
61702;SDS011;47622;47.726;3.298;2024-02-26T11:11:26;3.03;;;0.90;;
61702;SDS011;47622;47.726;3.298;2024-02-26T11:13:53;1.48;;;0.80;;
61702;SDS011;47622;47.726;3.298;2024-02-26T11:16:22;0.70;;;0.70;;
61702;SDS011;47622;47.726;3.298;2024-02-26T11:18:49;1.52;;;0.60;;
61702;SDS011;47622;47.726;3.298;2024-02-26T11:21:17;2.10;;;0.80;;
61702;SDS011;47622;47.726;3.298;2024-02-26T11:23:47;0.70;;;0.70;;
61702;SDS011;47622;47.726;3.298;2024-02-26T11:26:13;1.27;;;0.60;;
61702;SDS011;47622;47.726;3.298;2024-02-26T11:28:42;1.40;;;0.73;;
61702;SDS011;47622;47.726;3.298;2024-02-26T11:31:09;1.00;;;0.90;;
61702;SDS011;47622;47.726;3.298;2024-02-26T11:33:36;1.48;;;0.80;;
61702;SDS011;47622;47.726;3.298;2024-02-26T11:36:02;0.80;;;0.80;;
61702;SDS011;47622;47.726;3.298;2024-02-26T11:38:32;0.80;;;0.80;;
61702;SDS011;47622;47.726;3.298;2024-02-26T11:40:58;2.25;;;0.75;;
61702;SDS011;47622;47.726;3.298;2024-02-26T11:46:26;0.65;;;0.65;;
61702;SDS011;47622;47.726;3.298;2024-02-26T11:48:59;0.70;;;0.70;;
61702;SDS011;47622;47.726;3.298;2024-02-26T11:51:26;0.70;;;0.70;;
61702;SDS011;47622;47.726;3.298;2024-02-26T11:53:53;2.13;;;0.80;;
61702;SDS011;47622;47.726;3.298;2024-02-26T11:58:46;1.83;;;0.82;;
61702;SDS011;47622;47.726;3.298;2024-02-26T12:04:07;1.10;;;0.70;;
61702;SDS011;47622;47.726;3.298;2024-02-26T12:06:44;1.55;;;0.70;;
61702;SDS011;47622;47.726;3.298;2024-02-26T12:09:12;0.60;;;0.60;;
61702;SDS011;47622;47.726;3.298;2024-02-26T12:11:39;0.85;;;0.70;;
61702;SDS011;47622;47.726;3.298;2024-02-26T12:14:07;2.30;;;0.70;;
61702;SDS011;47622;47.726;3.298;2024-02-26T12:16:39;0.50;;;0.50;;
61702;SDS011;47622;47.726;3.298;2024-02-26T12:19:08;0.60;;;0.60;;
61702;SDS011;47622;47.726;3.298;2024-02-26T12:21:37;0.50;;;0.50;;
61702;SDS011;47622;47.726;3.298;2024-02-26T12:24:06;0.60;;;0.60;;
61702;SDS011;47622;47.726;3.298;2024-02-26T12:26:35;0.80;;;0.60;;
61702;SDS011;47622;47.726;3.298;2024-02-26T12:29:00;0.50;;;0.50;;
61702;SDS011;47622;47.726;3.298;2024-02-26T12:31:26;0.40;;;0.40;;
61702;SDS011;47622;47.726;3.298;2024-02-26T12:33:54;0.40;;;0.40;;
61702;SDS011;47622;47.726;3.298;2024-02-26T12:36:20;0.50;;;0.50;;
61702;SDS011;47622;47.726;3.298;2024-02-26T12:38:48;0.50;;;0.50;;
61702;SDS011;47622;47.726;3.298;2024-02-26T12:41:16;0.60;;;0.60;;
61702;SDS011;47622;47.726;3.298;2024-02-26T12:43:41;0.88;;;0.60;;
61702;SDS011;47622;47.726;3.298;2024-02-26T12:46:07;0.47;;;0.47;;
61702;SDS011;47622;47.726;3.298;2024-02-26T12:48:33;1.38;;;0.68;;
61702;SDS011;47622;47.726;3.298;2024-02-26T12:50:59;0.77;;;0.77;;
61702;SDS011;47622;47.726;3.298;2024-02-26T12:53:25;0.73;;;0.65;;
61702;SDS011;47622;47.726;3.298;2024-02-26T12:55:53;0.70;;;0.60;;
61702;SDS011;47622;47.726;3.298;2024-02-26T12:58:19;0.75;;;0.68;;
61702;SDS011;47622;47.726;3.298;2024-02-26T13:00:50;0.70;;;0.70;;
61702;SDS011;47622;47.726;3.298;2024-02-26T13:03:16;1.10;;;0.60;;
61702;SDS011;47622;47.726;3.298;2024-02-26T13:05:42;0.60;;;0.60;;
61702;SDS011;47622;47.726;3.298;2024-02-26T13:08:08;1.00;;;0.68;;
61702;SDS011;47622;47.726;3.298;2024-02-26T13:10:34;0.65;;;0.65;;
61702;SDS011;47622;47.726;3.298;2024-02-26T13:13:01;0.75;;;0.60;;
61702;SDS011;47622;47.726;3.298;2024-02-26T13:15:27;0.93;;;0.80;;
61702;SDS011;47622;47.726;3.298;2024-02-26T13:17:53;0.75;;;0.57;;
61702;SDS011;47622;47.726;3.298;2024-02-26T13:20:27;0.73;;;0.57;;
61702;SDS011;47622;47.726;3.298;2024-02-26T13:23:03;0.43;;;0.43;;
61702;SDS011;47622;47.726;3.298;2024-02-26T13:25:33;0.95;;;0.50;;
61702;SDS011;47622;47.726;3.298;2024-02-26T13:28:06;1.48;;;0.50;;
61702;SDS011;47622;47.726;3.298;2024-02-26T13:30:34;0.73;;;0.60;;
61702;SDS011;47622;47.726;3.298;2024-02-26T13:33:11;0.55;;;0.55;;
61702;SDS011;47622;47.726;3.298;2024-02-26T13:35:37;0.50;;;0.50;;
61702;SDS011;47622;47.726;3.298;2024-02-26T13:38:06;0.70;;;0.50;;
61702;SDS011;47622;47.726;3.298;2024-02-26T13:40:32;0.40;;;0.40;;
61702;SDS011;47622;47.726;3.298;2024-02-26T13:42:59;0.60;;;0.60;;
61702;SDS011;47622;47.726;3.298;2024-02-26T13:45:25;1.27;;;0.40;;
61702;SDS011;47622;47.726;3.298;2024-02-26T13:47:51;0.50;;;0.50;;
61702;SDS011;47622;47.726;3.298;2024-02-26T13:50:17;1.02;;;0.40;;
61702;SDS011;47622;47.726;3.298;2024-02-26T13:52:46;0.40;;;0.40;;
61702;SDS011;47622;47.726;3.298;2024-02-26T13:55:18;0.50;;;0.50;;
61702;SDS011;47622;47.726;3.298;2024-02-26T13:57:45;0.40;;;0.40;;
61702;SDS011;47622;47.726;3.298;2024-02-26T14:00:10;0.50;;;0.50;;
61702;SDS011;47622;47.726;3.298;2024-02-26T14:02:37;1.48;;;0.57;;
61702;SDS011;47622;47.726;3.298;2024-02-26T14:05:03;0.50;;;0.50;;
61702;SDS011;47622;47.726;3.298;2024-02-26T14:07:29;0.50;;;0.50;;
61702;SDS011;47622;47.726;3.298;2024-02-26T14:09:57;0.60;;;0.50;;
61702;SDS011;47622;47.726;3.298;2024-02-26T14:12:23;0.50;;;0.50;;
61702;SDS011;47622;47.726;3.298;2024-02-26T14:14:49;0.57;;;0.52;;
61702;SDS011;47622;47.726;3.298;2024-02-26T14:17:15;0.50;;;0.50;;
61702;SDS011;47622;47.726;3.298;2024-02-26T14:19:43;0.75;;;0.50;;
61702;SDS011;47622;47.726;3.298;2024-02-26T14:22:13;0.50;;;0.50;;
61702;SDS011;47622;47.726;3.298;2024-02-26T14:24:39;0.50;;;0.50;;
61702;SDS011;47622;47.726;3.298;2024-02-26T14:27:06;1.38;;;0.57;;
61702;SDS011;47622;47.726;3.298;2024-02-26T14:29:34;0.40;;;0.40;;
61702;SDS011;47622;47.726;3.298;2024-02-26T14:31:59;0.65;;;0.50;;
61702;SDS011;47622;47.726;3.298;2024-02-26T14:34:26;1.00;;;0.50;;
61702;SDS011;47622;47.726;3.298;2024-02-26T14:36:52;0.80;;;0.57;;
61702;SDS011;47622;47.726;3.298;2024-02-26T14:39:18;1.00;;;0.50;;
61702;SDS011;47622;47.726;3.298;2024-02-26T14:41:43;0.45;;;0.45;;
61702;SDS011;47622;47.726;3.298;2024-02-26T14:44:09;0.50;;;0.50;;
61702;SDS011;47622;47.726;3.298;2024-02-26T14:46:36;0.73;;;0.68;;
61702;SDS011;47622;47.726;3.298;2024-02-26T14:49:01;0.95;;;0.60;;